createdAt,value
2022-12-19T00:01:40.572Z,-2.87
2022-12-19T00:03:44.514Z,-2.85
2022-12-19T00:05:47.106Z,-2.84
2022-12-19T00:07:49.737Z,-2.76
2022-12-19T00:09:52.394Z,-2.72
2022-12-19T00:11:55.307Z,-2.69
2022-12-19T00:13:59.996Z,-2.75
2022-12-19T00:16:03.937Z,-2.71
2022-12-19T00:18:06.712Z,-2.64
2022-12-19T00:20:10.294Z,-2.48
2022-12-19T00:22:14.391Z,-2.47
2022-12-19T00:24:21.650Z,-2.34
2022-12-19T00:26:26.453Z,-2.46
2022-12-19T00:28:29.032Z,-2.47
2022-12-19T00:30:33.221Z,-2.47
2022-12-19T00:32:36.311Z,-2.38
2022-12-19T00:34:38.905Z,-2.26
2022-12-19T00:36:41.561Z,-2.32
2022-12-19T00:38:44.367Z,-2.40
2022-12-19T00:40:46.961Z,-2.42
2022-12-19T00:42:53.547Z,-2.45
2022-12-19T00:44:56.427Z,-2.43
2022-12-19T00:47:00.402Z,-2.42
2022-12-19T00:49:03.964Z,-2.40
2022-12-19T00:51:08.788Z,-2.43
2022-12-19T00:53:11.413Z,-2.44
2022-12-19T00:55:18.783Z,-2.43
2022-12-19T00:57:22.063Z,-2.44
2022-12-19T00:59:26.915Z,-2.43
2022-12-19T01:01:33.276Z,-2.42
2022-12-19T01:03:37.604Z,-2.43
2022-12-19T01:05:40.752Z,-2.41
2022-12-19T01:07:44.773Z,-2.39
2022-12-19T01:09:47.386Z,-2.43
2022-12-19T01:12:08.884Z,-2.39
2022-12-19T01:14:16.089Z,-2.35
2022-12-19T01:16:21.833Z,-2.35
2022-12-19T01:18:24.496Z,-2.33
2022-12-19T01:20:29.687Z,-2.31
2022-12-19T01:22:32.742Z,-2.32
2022-12-19T01:24:35.364Z,-2.28
2022-12-19T01:26:38.011Z,-2.22
2022-12-19T01:28:40.832Z,-2.25
2022-12-19T01:30:43.524Z,-2.30
2022-12-19T01:32:47.144Z,-2.24
2022-12-19T01:34:50.025Z,-2.25
2022-12-19T01:36:53.942Z,-2.25
2022-12-19T01:38:56.660Z,-2.22
2022-12-19T01:40:59.303Z,-2.22
2022-12-19T01:43:04.868Z,-2.23
2022-12-19T01:45:34.447Z,-2.26
2022-12-19T01:47:46.475Z,-2.25
2022-12-19T01:49:51.326Z,-2.24
2022-12-19T01:51:57.876Z,-2.24
2022-12-19T01:54:05.277Z,-2.20
2022-12-19T01:56:10.788Z,-2.19
2022-12-19T01:58:14.866Z,-2.19
2022-12-19T02:00:17.862Z,-2.17
2022-12-19T02:02:26.496Z,-2.15
2022-12-19T02:04:32.286Z,-2.12
2022-12-19T02:06:36.110Z,-2.10
2022-12-19T02:08:42.376Z,-2.07
2022-12-19T02:10:45.086Z,-2.04
2022-12-19T02:12:48.051Z,-2.00
2022-12-19T02:14:50.865Z,-1.98
2022-12-19T02:17:00.400Z,-1.98
2022-12-19T02:19:20.056Z,-1.94
2022-12-19T02:21:34.811Z,-1.90
2022-12-19T02:24:08.477Z,-1.92
2022-12-19T02:26:32.951Z,-1.92
2022-12-19T02:29:04.624Z,-1.94
2022-12-19T02:31:17.727Z,-1.92
2022-12-19T02:33:30.703Z,-1.92
2022-12-19T02:35:41.467Z,-1.90
2022-12-19T02:37:49.510Z,-1.87
2022-12-19T02:39:59.953Z,-1.83
2022-12-19T02:42:06.813Z,-1.78
2022-12-19T02:44:11.206Z,-1.82
2022-12-19T02:46:16.360Z,-1.84
2022-12-19T02:48:19.726Z,-1.83
2022-12-19T02:50:22.415Z,-1.78
2022-12-19T02:52:46.740Z,-1.81
2022-12-19T02:54:51.850Z,-1.77
2022-12-19T02:56:59.972Z,-1.78
2022-12-19T02:59:32.707Z,-1.79
2022-12-19T03:01:45.689Z,-1.77
2022-12-19T03:04:00.901Z,-1.75
2022-12-19T03:06:12.723Z,-1.75
2022-12-19T03:08:20.195Z,-1.76
2022-12-19T03:10:31.878Z,-1.72
2022-12-19T03:12:42.413Z,-1.72
2022-12-19T03:14:46.512Z,-1.69
2022-12-19T03:16:50.788Z,-1.69
2022-12-19T03:19:00.860Z,-1.71
2022-12-19T03:21:09.815Z,-1.71
2022-12-19T03:23:13.311Z,-1.70
2022-12-19T03:25:16.032Z,-1.67
2022-12-19T03:27:25.269Z,-1.66
2022-12-19T03:29:33.661Z,-1.64
2022-12-19T03:31:39.050Z,-1.68
2022-12-19T03:33:44.516Z,-1.63
2022-12-19T03:35:48.693Z,-1.63
2022-12-19T03:37:53.568Z,-1.62
2022-12-19T03:39:59.892Z,-1.62
2022-12-19T03:42:23.691Z,-1.61
2022-12-19T03:44:30.630Z,-1.60
2022-12-19T03:46:36.613Z,-1.61
2022-12-19T03:48:45.495Z,-1.57
2022-12-19T03:50:55.176Z,-1.61
2022-12-19T03:53:05.087Z,-1.53
2022-12-19T03:55:14.786Z,-1.43
2022-12-19T03:57:22.156Z,-1.34
2022-12-19T03:59:34.343Z,-1.41
2022-12-19T04:01:38.692Z,-1.43
2022-12-19T04:03:42.885Z,-1.42
2022-12-19T04:05:47.668Z,-1.44
2022-12-19T04:07:51.988Z,-1.45
2022-12-19T04:09:56.823Z,-1.48
2022-12-19T04:12:03.691Z,-1.46
2022-12-19T04:14:11.625Z,-1.48
2022-12-19T04:16:19.583Z,-1.46
2022-12-19T04:18:23.381Z,-1.44
2022-12-19T04:20:30.889Z,-1.43
2022-12-19T04:22:37.762Z,-1.42
2022-12-19T04:24:43.394Z,-1.39
2022-12-19T04:26:49.863Z,-1.39
2022-12-19T04:28:56.418Z,-1.36
2022-12-19T04:31:00.156Z,-1.33
2022-12-19T04:33:02.785Z,-1.31
2022-12-19T04:35:06.046Z,-1.31
2022-12-19T04:37:10.046Z,-1.32
2022-12-19T04:39:12.719Z,-1.28
2022-12-19T04:41:15.336Z,-1.27
2022-12-19T04:43:17.922Z,-1.26
2022-12-19T04:45:20.516Z,-1.24
2022-12-19T04:47:23.186Z,-1.24
2022-12-19T04:49:25.827Z,-1.22
2022-12-19T04:51:28.493Z,-1.20
2022-12-19T04:53:32.871Z,-1.19
2022-12-19T04:55:35.545Z,-1.17
2022-12-19T04:57:38.206Z,-1.17
2022-12-19T04:59:40.844Z,-1.15
2022-12-19T05:01:43.513Z,-1.14
2022-12-19T05:03:50.018Z,-1.13
2022-12-19T05:06:03.490Z,-1.12
2022-12-19T05:08:06.613Z,-1.10
2022-12-19T05:10:11.228Z,-1.09
2022-12-19T05:12:13.866Z,-1.08
2022-12-19T05:14:16.615Z,-1.06
2022-12-19T05:16:19.881Z,-1.05
2022-12-19T05:18:22.526Z,-1.05
2022-12-19T05:20:25.123Z,-1.03
2022-12-19T05:22:27.734Z,-0.95
2022-12-19T05:24:30.340Z,-0.98
2022-12-19T05:26:34.281Z,-0.98
2022-12-19T05:28:36.918Z,-0.97
2022-12-19T05:30:39.570Z,-0.97
2022-12-19T05:32:42.188Z,-0.97
2022-12-19T05:34:44.797Z,-0.95
2022-12-19T05:36:47.588Z,-0.95
2022-12-19T05:38:50.274Z,-0.96
2022-12-19T05:40:53.100Z,-0.93
2022-12-19T05:42:57.133Z,-0.91
2022-12-19T05:44:59.868Z,-0.90
2022-12-19T05:47:02.452Z,-0.89
2022-12-19T05:49:05.098Z,-0.83
2022-12-19T05:51:08.326Z,-0.78
2022-12-19T05:53:10.930Z,-0.77
2022-12-19T05:55:13.683Z,-0.68
2022-12-19T05:57:16.287Z,-0.66
2022-12-19T05:59:20.262Z,-0.70
2022-12-19T06:01:24.740Z,-0.69
2022-12-19T06:03:27.422Z,-0.69
2022-12-19T06:05:30.060Z,-0.72
2022-12-19T06:07:32.652Z,-0.71
2022-12-19T06:09:35.358Z,-0.74
2022-12-19T06:11:37.952Z,-0.68
2022-12-19T06:13:41.839Z,-0.67
2022-12-19T06:15:47.064Z,-0.67
2022-12-19T06:17:49.751Z,-0.63
2022-12-19T06:19:52.362Z,-0.59
2022-12-19T06:21:54.987Z,-0.62
2022-12-19T06:23:57.719Z,-0.59
2022-12-19T06:26:01.480Z,-0.57
2022-12-19T06:28:04.182Z,-0.60
2022-12-19T06:30:08.026Z,-0.61
2022-12-19T06:32:13.134Z,-0.56
2022-12-19T06:34:39.498Z,-0.58
2022-12-19T06:36:38.872Z,-0.55
2022-12-19T06:38:41.489Z,-0.56
2022-12-19T06:41:02.771Z,-0.56
2022-12-19T06:43:05.353Z,-0.53
2022-12-19T06:45:08.844Z,-0.51
2022-12-19T06:47:12.769Z,-0.51
2022-12-19T06:49:15.370Z,-0.49
2022-12-19T06:51:18.314Z,-0.51
2022-12-19T06:53:20.940Z,-0.49
2022-12-19T06:55:23.739Z,-0.48
2022-12-19T06:57:26.313Z,-0.44
2022-12-19T06:59:28.919Z,-0.43
2022-12-19T07:01:48.009Z,-0.43
2022-12-19T07:03:52.299Z,-0.40
2022-12-19T07:05:54.991Z,-0.37
2022-12-19T07:07:57.597Z,-0.38
2022-12-19T07:10:00.349Z,-0.29
2022-12-19T07:12:03.282Z,-0.30
2022-12-19T07:14:06.246Z,-0.30
2022-12-19T07:16:11.285Z,-0.30
2022-12-19T07:18:14.242Z,-0.15
2022-12-19T07:20:20.110Z,-0.25
2022-12-19T07:22:23.781Z,-0.28
2022-12-19T07:24:26.417Z,-0.27
2022-12-19T07:26:29.066Z,-0.26
2022-12-19T07:28:33.692Z,-0.26
2022-12-19T07:30:36.413Z,-0.26
2022-12-19T07:32:42.019Z,-0.24
2022-12-19T07:34:44.688Z,-0.21
2022-12-19T07:36:48.618Z,-0.21
2022-12-19T07:38:51.246Z,-0.22
2022-12-19T07:40:53.853Z,-0.23
2022-12-19T07:43:00.373Z,-0.19
2022-12-19T07:45:03.108Z,-0.20
2022-12-19T07:47:05.822Z,-0.18
2022-12-19T07:49:08.460Z,-0.14
2022-12-19T07:51:11.130Z,-0.11
2022-12-19T07:53:15.258Z,-0.14
2022-12-19T07:55:18.063Z,-0.15
2022-12-19T07:57:21.053Z,-0.18
2022-12-19T07:59:29.598Z,-0.14
2022-12-19T08:01:34.121Z,-0.16
2022-12-19T08:03:36.949Z,-0.13
2022-12-19T08:05:39.602Z,-0.11
2022-12-19T08:07:42.266Z,-0.08
2022-12-19T08:09:46.340Z,-0.05
2022-12-19T08:11:49.063Z,-0.05
2022-12-19T08:13:51.677Z,0.02
2022-12-19T08:15:54.511Z,0.01
2022-12-19T08:17:58.037Z,-0.01
2022-12-19T08:20:00.632Z,0.01
2022-12-19T08:22:03.285Z,0.00
2022-12-19T08:24:06.670Z,0.05
2022-12-19T08:26:14.398Z,0.05
2022-12-19T08:28:17.054Z,0.19
2022-12-19T08:30:20.077Z,0.23
2022-12-19T08:32:22.737Z,0.35
2022-12-19T08:34:25.348Z,0.30
2022-12-19T08:36:27.948Z,0.33
2022-12-19T08:38:30.681Z,0.42
2022-12-19T08:40:33.746Z,0.34
2022-12-19T08:42:38.090Z,0.40
2022-12-19T08:44:40.765Z,0.42
2022-12-19T08:46:49.537Z,0.47
2022-12-19T08:48:52.755Z,0.44
2022-12-19T08:50:57.703Z,0.51
2022-12-19T08:53:00.311Z,0.43
2022-12-19T08:55:03.067Z,0.43
2022-12-19T08:57:05.629Z,0.44
2022-12-19T08:59:09.548Z,0.52
2022-12-19T09:01:19.194Z,0.58
2022-12-19T09:03:23.756Z,0.63
2022-12-19T09:05:59.259Z,0.67
2022-12-19T09:07:50.836Z,0.65
2022-12-19T09:09:54.113Z,0.58
2022-12-19T09:11:56.777Z,0.62
2022-12-19T09:13:59.683Z,0.63
2022-12-19T09:16:06.298Z,0.63
2022-12-19T09:18:08.936Z,0.64
2022-12-19T09:20:14.825Z,0.65
2022-12-19T09:22:19.453Z,0.72
2022-12-19T09:24:22.070Z,0.70
2022-12-19T09:26:26.534Z,0.75
2022-12-19T09:28:31.580Z,0.77
2022-12-19T09:30:34.528Z,0.79
2022-12-19T09:32:39.627Z,0.76
2022-12-19T09:34:42.234Z,0.76
2022-12-19T09:36:44.854Z,0.74
2022-12-19T09:38:48.131Z,0.74
2022-12-19T09:41:07.238Z,0.75
2022-12-19T09:43:15.055Z,0.78
2022-12-19T09:45:40.916Z,0.79
2022-12-19T09:47:48.940Z,0.81
2022-12-19T09:49:54.015Z,0.88
2022-12-19T09:52:01.605Z,0.88
2022-12-19T09:54:13.538Z,0.90
2022-12-19T09:56:18.111Z,0.96
2022-12-19T09:58:34.822Z,0.95
2022-12-19T10:00:41.892Z,0.98
2022-12-19T10:02:51.668Z,0.99
2022-12-19T10:05:17.488Z,1.02
2022-12-19T10:08:01.454Z,1.01
2022-12-19T10:11:45.777Z,1.02
2022-12-19T10:12:44.973Z,1.05
2022-12-19T10:15:02.426Z,1.06
2022-12-19T10:17:25.360Z,1.07
2022-12-19T10:19:39.149Z,1.13
2022-12-19T10:22:16.879Z,1.14
2022-12-19T10:24:34.802Z,1.13
2022-12-19T10:26:43.939Z,1.13
2022-12-19T10:29:02.421Z,1.13
2022-12-19T10:31:21.346Z,1.15
2022-12-19T10:33:33.432Z,1.17
2022-12-19T10:35:42.575Z,1.23
2022-12-19T10:37:51.304Z,1.29
2022-12-19T10:40:11.635Z,1.37
2022-12-19T10:42:30.030Z,1.39
2022-12-19T10:44:36.604Z,1.48
2022-12-19T10:46:41.522Z,1.45
2022-12-19T10:48:44.132Z,1.43
2022-12-19T10:50:48.272Z,1.61
2022-12-19T10:52:54.461Z,1.56
2022-12-19T10:54:57.765Z,1.58
2022-12-19T10:57:19.202Z,1.62
2022-12-19T10:59:22.635Z,1.61
2022-12-19T11:01:28.307Z,1.62
2022-12-19T11:03:32.228Z,1.66
2022-12-19T11:05:44.498Z,1.68
2022-12-19T11:08:02.983Z,1.68
2022-12-19T11:12:25.311Z,1.72
2022-12-19T11:16:36.662Z,1.77
2022-12-19T11:21:16.187Z,1.80
2022-12-19T11:29:16.607Z,1.95
2022-12-19T11:29:42.534Z,2.06
2022-12-19T11:29:45.132Z,1.94
2022-12-19T11:30:26.152Z,2.07
2022-12-19T11:30:43.746Z,2.10
2022-12-19T11:32:41.066Z,2.07
2022-12-19T11:34:50.675Z,2.06
2022-12-19T11:36:57.969Z,2.08
2022-12-19T11:39:01.321Z,2.12
2022-12-19T11:41:12.751Z,2.18
2022-12-19T11:45:52.477Z,2.31
2022-12-19T11:48:00.042Z,2.42
2022-12-19T11:50:11.827Z,2.45
2022-12-19T11:52:54.074Z,2.42
2022-12-19T11:54:49.310Z,2.40
2022-12-19T11:56:53.251Z,2.43
2022-12-19T11:59:01.030Z,2.46
2022-12-19T12:01:13.630Z,2.47
2022-12-19T12:03:34.855Z,2.46
2022-12-19T12:05:43.964Z,2.43
2022-12-19T12:09:48.750Z,2.43
2022-12-19T12:15:37.939Z,2.44
2022-12-19T12:20:54.216Z,2.45
2022-12-19T12:29:48.796Z,2.46
2022-12-19T12:31:01.919Z,2.52
2022-12-19T12:31:18.580Z,2.63
2022-12-19T12:31:38.888Z,2.57
2022-12-19T12:31:47.568Z,2.63
2022-12-19T12:31:52.923Z,2.64
2022-12-19T12:35:29.219Z,2.84
2022-12-19T12:39:15.991Z,2.85
2022-12-19T12:41:48.009Z,2.83
2022-12-19T12:44:07.503Z,2.86
2022-12-19T12:46:17.226Z,2.98
2022-12-19T12:48:26.090Z,2.99
2022-12-19T12:50:31.373Z,2.96
2022-12-19T12:52:38.141Z,2.92
2022-12-19T12:54:43.822Z,2.91
2022-12-19T12:56:48.516Z,2.88
2022-12-19T12:59:23.956Z,2.86
2022-12-19T13:01:35.500Z,2.85
2022-12-19T13:03:38.656Z,2.87
2022-12-19T13:05:54.019Z,2.88
2022-12-19T13:07:56.772Z,2.91
2022-12-19T13:10:19.668Z,2.94
2022-12-19T13:12:44.604Z,2.95
2022-12-19T13:14:49.706Z,2.93
2022-12-19T13:16:55.395Z,2.89
2022-12-19T13:19:05.303Z,2.87
2022-12-19T13:21:10.603Z,2.87
2022-12-19T13:23:33.293Z,2.85
2022-12-19T13:25:51.181Z,2.83
2022-12-19T13:27:58.367Z,2.83
2022-12-19T13:30:20.387Z,2.81
2022-12-19T13:32:24.908Z,2.82
2022-12-19T13:34:36.688Z,2.82
2022-12-19T13:39:50.571Z,2.83
2022-12-19T13:39:59.625Z,2.96
2022-12-19T13:42:20.910Z,2.91
2022-12-19T13:44:23.709Z,2.91
2022-12-19T13:46:37.877Z,2.94
2022-12-19T13:48:46.800Z,2.94
2022-12-19T13:50:50.075Z,2.91
2022-12-19T13:52:53.679Z,2.88
2022-12-19T13:54:59.292Z,2.92
2022-12-19T13:57:08.960Z,2.95
2022-12-19T13:59:12.555Z,2.91
2022-12-19T14:01:22.358Z,2.92
2022-12-19T14:03:35.096Z,2.91
2022-12-19T14:06:17.423Z,2.88
2022-12-19T14:08:05.928Z,2.88
2022-12-19T14:11:32.101Z,2.92
2022-12-19T14:13:54.122Z,2.87
2022-12-19T14:15:28.640Z,2.87
2022-12-19T14:17:31.242Z,2.85
2022-12-19T14:19:39.799Z,2.83
2022-12-19T14:22:03.939Z,2.79
2022-12-19T14:24:11.051Z,2.78
2022-12-19T14:28:22.352Z,2.78
2022-12-19T14:28:54.741Z,2.76
2022-12-19T14:31:01.431Z,2.75
2022-12-19T14:33:45.140Z,2.73
2022-12-19T14:36:12.268Z,2.71
2022-12-19T14:39:24.576Z,2.71
2022-12-19T14:40:28.501Z,2.69
2022-12-19T14:43:56.815Z,2.76
2022-12-19T14:54:02.600Z,2.77
2022-12-19T14:54:04.474Z,2.75
2022-12-19T14:54:15.112Z,2.72
2022-12-19T14:54:34.135Z,2.67
2022-12-19T14:56:15.900Z,2.69
2022-12-19T14:58:54.154Z,2.65
2022-12-19T15:01:07.489Z,2.62
2022-12-19T15:02:52.150Z,2.57
2022-12-19T15:05:03.171Z,2.57
2022-12-19T15:07:12.243Z,2.57
2022-12-19T15:10:57.866Z,2.54
2022-12-19T15:14:37.439Z,2.63
2022-12-19T15:14:56.345Z,2.62
2022-12-19T15:16:49.297Z,2.64
2022-12-19T15:18:54.408Z,2.60
2022-12-19T15:20:59.093Z,2.57
2022-12-19T15:23:01.797Z,2.59
2022-12-19T15:25:06.597Z,2.52
2022-12-19T15:27:12.813Z,2.47
2022-12-19T15:29:21.641Z,2.45
2022-12-19T15:31:34.555Z,2.47
2022-12-19T15:33:48.023Z,2.46
2022-12-19T15:36:00.117Z,2.43
2022-12-19T15:38:02.685Z,2.40
2022-12-19T15:40:08.612Z,2.37
2022-12-19T15:42:21.487Z,2.38
2022-12-19T15:44:31.310Z,2.37
2022-12-19T15:46:34.414Z,2.35
2022-12-19T15:48:40.364Z,2.36
2022-12-19T15:50:43.894Z,2.33
2022-12-19T15:52:46.633Z,2.33
2022-12-19T15:54:50.790Z,2.32
2022-12-19T15:56:57.289Z,2.29
2022-12-19T15:59:01.991Z,2.30
2022-12-19T16:01:05.504Z,2.31
2022-12-19T16:03:23.607Z,2.31
2022-12-19T16:05:29.289Z,2.31
2022-12-19T16:07:32.209Z,2.30
2022-12-19T16:09:34.909Z,2.31
2022-12-19T16:11:38.855Z,2.29
2022-12-19T16:13:46.314Z,2.31
2022-12-19T16:15:52.859Z,2.35
2022-12-19T16:17:56.083Z,2.32
2022-12-19T16:19:59.379Z,2.31
2022-12-19T16:22:02.807Z,2.28
2022-12-19T16:24:08.187Z,2.29
2022-12-19T16:26:26.485Z,2.26
2022-12-19T16:28:32.117Z,2.23
2022-12-19T16:30:36.527Z,2.23
2022-12-19T16:32:39.209Z,2.21
2022-12-19T16:34:41.845Z,2.19
2022-12-19T16:36:44.984Z,2.19
2022-12-19T16:38:48.269Z,2.15
2022-12-19T16:40:52.749Z,2.11
2022-12-19T16:43:04.574Z,2.10
2022-12-19T16:45:07.418Z,2.09
2022-12-19T16:47:14.167Z,2.11
2022-12-19T16:49:19.166Z,2.12
2022-12-19T16:51:24.120Z,2.13
2022-12-19T16:53:26.950Z,2.13
2022-12-19T16:55:29.537Z,2.18
2022-12-19T16:57:32.269Z,2.20
2022-12-19T16:59:38.289Z,2.20
2022-12-19T17:01:41.105Z,2.25
2022-12-19T17:03:46.260Z,2.28
2022-12-19T17:05:48.850Z,2.27
2022-12-19T17:07:52.354Z,2.40
2022-12-19T17:09:55.014Z,2.49
2022-12-19T17:12:00.427Z,2.51
2022-12-19T17:14:08.346Z,2.48
2022-12-19T17:16:11.099Z,2.52
2022-12-19T17:18:16.933Z,2.49
2022-12-19T17:20:23.501Z,2.51
2022-12-19T17:22:26.131Z,2.48
2022-12-19T17:24:28.815Z,2.47
2022-12-19T17:26:31.470Z,2.49
2022-12-19T17:28:34.128Z,2.48
2022-12-19T17:30:37.768Z,2.49
2022-12-19T17:32:40.563Z,2.49
2022-12-19T17:34:44.823Z,2.47
2022-12-19T17:36:48.893Z,2.48
2022-12-19T17:38:53.947Z,2.47
2022-12-19T17:40:56.566Z,2.50
2022-12-19T17:42:59.968Z,2.47
2022-12-19T17:45:02.562Z,2.46
2022-12-19T17:47:05.540Z,2.43
2022-12-19T17:49:16.852Z,2.39
2022-12-19T17:51:21.217Z,2.40
2022-12-19T17:53:25.400Z,2.40
2022-12-19T17:55:30.003Z,2.38
2022-12-19T17:57:32.607Z,2.42
2022-12-19T17:59:35.180Z,2.39
2022-12-19T18:01:41.574Z,2.39
2022-12-19T18:03:44.732Z,2.38
2022-12-19T18:05:47.899Z,2.46
2022-12-19T18:07:50.722Z,2.45
2022-12-19T18:09:54.654Z,2.43
2022-12-19T18:11:57.279Z,2.42
2022-12-19T18:13:59.940Z,2.39
2022-12-19T18:16:04.939Z,2.35
2022-12-19T18:18:13.482Z,2.33
2022-12-19T18:20:30.930Z,2.33
2022-12-19T18:22:37.248Z,2.33
2022-12-19T18:24:41.026Z,2.32
2022-12-19T18:26:45.619Z,2.31
2022-12-19T18:28:48.422Z,2.30
2022-12-19T18:30:52.412Z,2.29
2022-12-19T18:32:58.587Z,2.28
2022-12-19T18:35:01.248Z,2.24
2022-12-19T18:37:06.711Z,2.25
2022-12-19T18:39:19.981Z,2.24
2022-12-19T18:41:23.521Z,2.27
2022-12-19T18:43:27.491Z,2.24
2022-12-19T18:45:36.211Z,2.21
2022-12-19T18:47:39.376Z,2.25
2022-12-19T18:49:42.007Z,2.34
2022-12-19T18:51:45.932Z,2.36
2022-12-19T18:53:51.002Z,2.55
2022-12-19T18:55:53.675Z,2.70
2022-12-19T18:57:56.948Z,2.73
2022-12-19T19:00:00.883Z,2.66
2022-12-19T19:02:04.947Z,2.56
2022-12-19T19:04:08.881Z,2.55
2022-12-19T19:06:19.433Z,2.54
2022-12-19T19:08:27.079Z,2.49
2022-12-19T19:10:31.594Z,2.48
2022-12-19T19:12:34.224Z,2.45
2022-12-19T19:14:36.843Z,2.44
2022-12-19T19:16:40.956Z,2.44
2022-12-19T19:18:44.699Z,2.44
2022-12-19T19:20:48.640Z,2.38
2022-12-19T19:22:52.095Z,2.39
2022-12-19T19:24:54.763Z,2.39
2022-12-19T19:26:57.358Z,2.40
2022-12-19T19:29:00.005Z,2.42
2022-12-19T19:31:02.769Z,2.43
2022-12-19T19:33:10.533Z,2.44
2022-12-19T19:35:17.014Z,2.46
2022-12-19T19:37:19.793Z,2.46
2022-12-19T19:39:23.270Z,2.46
2022-12-19T19:41:29.789Z,2.53
2022-12-19T19:43:33.996Z,2.47
2022-12-19T19:45:42.779Z,2.42
2022-12-19T19:47:45.937Z,2.39
2022-12-19T19:49:49.877Z,2.37
2022-12-19T19:51:57.024Z,2.42
2022-12-19T19:54:07.166Z,2.35
2022-12-19T19:56:10.837Z,2.25
2022-12-19T19:58:13.469Z,2.31
2022-12-19T20:00:16.780Z,2.24
2022-12-19T20:02:19.862Z,2.27
2022-12-19T20:04:22.774Z,2.22
2022-12-19T20:06:27.090Z,2.17
2022-12-19T20:08:38.613Z,2.16
2022-12-19T20:10:42.010Z,2.14
2022-12-19T20:12:44.647Z,2.12
2022-12-19T20:14:48.092Z,2.16
2022-12-19T20:16:51.021Z,2.12
2022-12-19T20:18:53.825Z,2.13
2022-12-19T20:20:56.432Z,2.15
2022-12-19T20:23:00.375Z,2.16
2022-12-19T20:25:03.053Z,2.18
2022-12-19T20:27:05.661Z,2.18
2022-12-19T20:29:08.255Z,2.20
2022-12-19T20:31:10.994Z,2.41
2022-12-19T20:33:13.650Z,2.38
2022-12-19T20:35:16.442Z,2.38
2022-12-19T20:37:19.067Z,2.37
2022-12-19T20:39:23.027Z,2.34
2022-12-19T20:41:25.585Z,2.31
2022-12-19T20:43:28.206Z,2.35
2022-12-19T20:45:30.939Z,2.30
2022-12-19T20:47:33.565Z,2.28
2022-12-19T20:49:36.149Z,2.24
2022-12-19T20:51:39.306Z,2.26
2022-12-19T20:53:42.793Z,2.31
2022-12-19T20:55:57.795Z,2.28
2022-12-19T20:58:01.207Z,2.24
2022-12-19T21:00:04.980Z,2.35
2022-12-19T21:02:07.891Z,2.30
2022-12-19T21:04:10.920Z,2.34
2022-12-19T21:06:15.174Z,2.33
2022-12-19T21:08:17.750Z,2.22
2022-12-19T21:10:20.710Z,2.37
2022-12-19T21:12:24.728Z,2.33
2022-12-19T21:14:27.351Z,2.35
2022-12-19T21:16:30.152Z,2.45
2022-12-19T21:18:32.779Z,2.44
2022-12-19T21:20:35.997Z,2.44
2022-12-19T21:22:38.920Z,2.41
2022-12-19T21:24:41.588Z,2.37
2022-12-19T21:26:45.201Z,2.35
2022-12-19T21:28:50.125Z,2.37
2022-12-19T21:30:56.972Z,2.37
2022-12-19T21:32:59.606Z,2.36
2022-12-19T21:35:02.254Z,2.36
2022-12-19T21:37:04.889Z,2.40
2022-12-19T21:39:07.759Z,2.46
2022-12-19T21:41:11.442Z,2.34
2022-12-19T21:43:14.356Z,2.37
2022-12-19T21:45:18.885Z,2.35
2022-12-19T21:47:21.543Z,2.42
2022-12-19T21:49:24.150Z,2.40
2022-12-19T21:51:29.926Z,2.44
2022-12-19T21:53:32.920Z,2.26
2022-12-19T21:55:35.805Z,2.32
2022-12-19T21:57:39.667Z,2.26
2022-12-19T21:59:42.329Z,2.32
2022-12-19T22:01:46.819Z,2.32
2022-12-19T22:03:50.266Z,2.31
2022-12-19T22:05:52.986Z,2.26
2022-12-19T22:07:55.591Z,2.28
2022-12-19T22:09:58.170Z,2.24
2022-12-19T22:12:00.774Z,2.25
2022-12-19T22:14:05.018Z,2.26
2022-12-19T22:16:08.392Z,2.25
2022-12-19T22:18:12.403Z,2.28
2022-12-19T22:20:15.393Z,2.26
2022-12-19T22:22:18.019Z,2.28
2022-12-19T22:24:20.636Z,2.23
2022-12-19T22:26:24.170Z,2.30
2022-12-19T22:28:26.783Z,2.24
2022-12-19T22:30:29.422Z,2.33
2022-12-19T22:32:32.011Z,2.36
2022-12-19T22:34:35.952Z,2.36
2022-12-19T22:36:40.762Z,2.27
2022-12-19T22:38:44.169Z,2.31
2022-12-19T22:40:46.782Z,2.30
2022-12-19T22:42:49.435Z,2.28
2022-12-19T22:44:53.372Z,2.27
2022-12-19T22:46:55.988Z,2.28
2022-12-19T22:49:00.874Z,2.32
2022-12-19T22:51:05.215Z,2.31
2022-12-19T22:53:12.618Z,2.43
2022-12-19T22:55:15.708Z,2.36
2022-12-19T22:57:18.338Z,2.31
2022-12-19T22:59:21.318Z,2.33
2022-12-19T23:01:25.846Z,2.35
2022-12-19T23:03:28.679Z,2.37
2022-12-19T23:05:31.418Z,2.35
2022-12-19T23:07:35.709Z,2.37
2022-12-19T23:09:39.601Z,2.33
2022-12-19T23:11:44.159Z,2.33
2022-12-19T23:13:48.622Z,2.35
2022-12-19T23:15:51.258Z,2.22
2022-12-19T23:17:53.833Z,2.26
2022-12-19T23:19:56.411Z,2.26
2022-12-19T23:21:59.065Z,2.30
2022-12-19T23:24:03.211Z,2.28
2022-12-19T23:26:07.262Z,2.30
2022-12-19T23:28:13.842Z,2.29
2022-12-19T23:30:16.535Z,2.30
2022-12-19T23:32:22.163Z,2.30
2022-12-19T23:34:24.821Z,2.26
2022-12-19T23:38:53.963Z,2.33
2022-12-19T23:41:01.709Z,2.30
2022-12-19T23:43:04.430Z,2.36
2022-12-19T23:45:08.458Z,2.38
2022-12-19T23:47:11.029Z,2.42
2022-12-19T23:49:13.675Z,2.35
2022-12-19T23:51:18.321Z,2.33
2022-12-19T23:53:20.902Z,2.39
2022-12-19T23:55:23.518Z,2.34
2022-12-19T23:57:27.469Z,2.38
2022-12-19T23:59:30.979Z,2.58
